Aérodrome :
LOGIN :

S'inscrire | Disclaimer

   EN    FR    IT 

 










Légende :    VFR   VFR Marginal   IFR   IFR Intensif   IFR Très Intensif
Visi : 
Plafond : 
>= 8 km
>= 3000ft
5 à 8 km
1000 à 3000 ft
1500m à 5 km
500 à 1000 ft
800 à 1500m
200 à 500 ft
< 800m
< 200 ft
Symboles :   Orages  Brouillard  Fortes neiges  Fortes précipitations  Vent > 20 kt
SIGMETs :   Divers  Orages  Givrage  Turbulence  Onde Orograph.  Cendres Volcan.






- Altitude de l'aérodrome : 370 ft


EBBE - Beauvechain AB

DERNIER METAR :
  • 150203Z AUTO VRB02KT 3500 BR FEW120/// 18/18 Q1014 YLO

METARs EXPIRÉS :
  • 150155Z AUTO VRB02KT 4000 BR FEW120/// 18/18 Q1015 GRN
  • 150125Z AUTO VRB01KT 4500 BR NCD 18/18 Q1015 GRN
  • 150116Z AUTO VRB01KT 4900 NCD 19/18 Q1015 GRN
  • 150055Z AUTO 23003KT 4900 NCD 18/18 Q1015 GRN
  • 150041Z AUTO VRB02KT 4500 NCD 19/18 Q1015 GRN
  • 150025Z AUTO VRB02KT 6000 NCD 19/18 Q1015 WHT
  • 142355Z AUTO 20004KT 6000 NCD 19/18 Q1015 WHT
  • 142343Z AUTO VRB02KT 6000 FEW012/// 18/18 Q1015 WHT
  • 142325Z AUTO 22004KT 5000 SCT011/// 19/18 Q1015 GRN

TAF TAF EBBE
Valide du 14 à 19h jusqu'au 15 à 07h UTC


141541Z 1419/1507 27006KT 9999 FEW040 SCT200
BECMG 1420/1422 FEW200
BECMG 1505/1507 21008KT 9999 SCT015 SCT025



MET'MAP, la Météo Aéronautique d'un coup d'oeil ! - Copyright ORBIFLY Décembre 2007 - Disclaimer

ORBIFLY MET'MAP TEAM :

Programmation & Développement : Alexandra Zaïnal
Sur une idée originale de : Baudouin d'Aumeries
Assistance à la programmation : Marc-Olivier Méhu
Soutien technique & logistique : Manuel Goepfert

Contact : metmap@orbifly.com




SOURCES & CREDITS :

   NOAA